createdAt,value
2023-05-12T00:01:03.530Z,6.53
2023-05-12T00:03:30.003Z,6.60
2023-05-12T00:05:56.511Z,6.57
2023-05-12T00:08:22.823Z,6.47
2023-05-12T00:10:49.168Z,6.40
2023-05-12T00:13:15.581Z,6.50
2023-05-12T00:15:42.019Z,6.30
2023-05-12T00:18:08.380Z,6.17
2023-05-12T00:20:34.729Z,6.37
2023-05-12T00:23:01.125Z,6.50
2023-05-12T00:25:27.453Z,6.27
2023-05-12T00:27:53.814Z,6.33
2023-05-12T00:30:21.244Z,6.90
2023-05-12T00:32:47.852Z,6.87
2023-05-12T00:35:14.157Z,6.50
2023-05-12T00:37:40.477Z,6.47
2023-05-12T00:40:07.572Z,6.37
2023-05-12T00:42:35.348Z,6.13
2023-05-12T00:45:02.252Z,6.80
2023-05-12T00:47:28.820Z,7.50
2023-05-12T00:49:55.463Z,7.67
2023-05-12T00:52:21.954Z,7.40
2023-05-12T00:54:48.693Z,6.07
2023-05-12T00:57:15.259Z,6.30
2023-05-12T00:59:41.544Z,6.47
2023-05-12T01:02:08.654Z,7.20
2023-05-12T01:04:36.009Z,6.90
2023-05-12T01:07:25.124Z,6.37
2023-05-12T01:09:58.131Z,6.37
2023-05-12T01:12:25.558Z,6.47
2023-05-12T01:14:53.857Z,6.10
2023-05-12T01:17:29.385Z,7.20
2023-05-12T01:20:01.632Z,7.10
2023-05-12T01:22:33.518Z,5.83
2023-05-12T01:25:03.625Z,6.20
2023-05-12T01:27:30.967Z,6.70
2023-05-12T01:30:02.816Z,6.17
2023-05-12T01:32:30.399Z,6.67
2023-05-12T01:34:56.788Z,6.00
2023-05-12T01:37:26.518Z,5.73
2023-05-12T01:39:53.961Z,5.70
2023-05-12T01:42:20.628Z,6.57
2023-05-12T01:44:46.975Z,6.27
2023-05-12T01:47:15.573Z,6.03
2023-05-12T01:49:41.890Z,5.90
2023-05-12T01:52:08.377Z,5.80
2023-05-12T01:54:34.739Z,6.13
2023-05-12T01:57:01.046Z,6.10
2023-05-12T01:59:27.435Z,6.03
2023-05-12T02:01:53.873Z,6.30
2023-05-12T02:04:20.180Z,6.37
2023-05-12T02:06:46.508Z,6.27
2023-05-12T02:09:13.177Z,6.50
2023-05-12T02:11:39.656Z,5.53
2023-05-12T02:14:06.679Z,6.00
2023-05-12T02:16:33.080Z,6.17
2023-05-12T02:18:59.494Z,5.63
2023-05-12T02:21:26.234Z,5.27
2023-05-12T02:23:52.583Z,5.43
2023-05-12T02:26:19.421Z,5.20
2023-05-12T02:28:45.890Z,5.77
2023-05-12T02:31:12.208Z,5.73
2023-05-12T02:33:38.642Z,5.90
2023-05-12T02:36:05.420Z,5.73
2023-05-12T02:38:31.686Z,5.37
2023-05-12T02:40:58.295Z,5.37
2023-05-12T02:43:24.608Z,5.07
2023-05-12T02:45:51.774Z,6.40
2023-05-12T02:48:18.131Z,6.83
2023-05-12T02:50:44.426Z,7.33
2023-05-12T02:53:10.740Z,6.83
2023-05-12T02:55:37.150Z,7.67
2023-05-12T02:58:03.551Z,7.90
2023-05-12T03:00:29.848Z,8.47
2023-05-12T03:02:56.242Z,8.57
2023-05-12T03:05:22.851Z,8.53
2023-05-12T03:07:52.021Z,9.23
2023-05-12T03:10:19.192Z,8.50
2023-05-12T03:12:45.811Z,8.33
2023-05-12T03:15:12.233Z,8.90
2023-05-12T03:17:38.738Z,9.03
2023-05-12T03:20:05.917Z,9.20
2023-05-12T03:22:32.495Z,10.17
2023-05-12T03:24:58.921Z,10.00
2023-05-12T03:27:25.348Z,9.80
2023-05-12T03:29:51.922Z,9.50
2023-05-12T03:32:18.357Z,9.47
2023-05-12T03:34:44.778Z,9.20
2023-05-12T03:37:11.070Z,10.40
2023-05-12T03:39:37.403Z,10.80
2023-05-12T03:42:03.929Z,11.50
2023-05-12T03:44:30.294Z,11.73
2023-05-12T03:46:56.737Z,11.30
2023-05-12T03:49:23.151Z,12.67
2023-05-12T03:51:49.454Z,12.63
2023-05-12T03:54:15.796Z,14.00
2023-05-12T03:56:42.200Z,13.90
2023-05-12T03:59:08.552Z,13.37
2023-05-12T04:01:35.607Z,12.30
2023-05-12T04:04:02.013Z,12.40
2023-05-12T04:06:28.361Z,14.10
2023-05-12T04:08:54.763Z,12.97
2023-05-12T04:11:21.170Z,12.37
2023-05-12T04:13:47.578Z,12.57
2023-05-12T04:16:14.116Z,12.23
2023-05-12T04:18:40.580Z,11.43
2023-05-12T04:21:06.975Z,11.27
2023-05-12T04:23:33.465Z,11.23
2023-05-12T04:25:59.772Z,10.90
2023-05-12T04:28:26.206Z,6.27
2023-05-12T04:30:52.489Z,5.10
2023-05-12T04:33:19.045Z,4.77
2023-05-12T04:35:45.570Z,4.70
2023-05-12T04:38:12.072Z,4.43
2023-05-12T04:40:38.401Z,4.37
2023-05-12T04:43:04.820Z,4.67
2023-05-12T04:45:31.250Z,4.73
2023-05-12T04:47:57.666Z,4.50
2023-05-12T04:50:23.982Z,4.77
2023-05-12T04:52:50.433Z,5.80
2023-05-12T04:55:16.963Z,5.37
2023-05-12T04:57:43.284Z,5.70
2023-05-12T05:00:10.235Z,5.73
2023-05-12T05:02:36.740Z,5.70
2023-05-12T05:05:03.273Z,5.90
2023-05-12T05:07:29.757Z,6.27
2023-05-12T05:09:56.222Z,6.47
2023-05-12T05:12:22.672Z,7.20
2023-05-12T05:14:49.153Z,6.60
2023-05-12T05:17:15.639Z,7.30
2023-05-12T05:19:55.196Z,7.47
2023-05-12T05:22:25.330Z,7.27
2023-05-12T05:24:51.782Z,6.93
2023-05-12T05:27:18.259Z,6.80
2023-05-12T05:29:44.581Z,7.27
2023-05-12T05:32:10.921Z,7.33
2023-05-12T05:34:37.612Z,7.60
2023-05-12T05:37:04.070Z,6.87
2023-05-12T05:39:30.835Z,6.87
2023-05-12T05:41:57.944Z,6.70
2023-05-12T05:44:25.009Z,6.73
2023-05-12T05:46:51.461Z,6.43
2023-05-12T05:49:17.850Z,6.60
2023-05-12T05:51:44.138Z,6.90
2023-05-12T05:54:10.577Z,6.00
2023-05-12T05:56:37.059Z,6.47
2023-05-12T05:59:04.588Z,5.93
2023-05-12T06:01:31.529Z,5.97
2023-05-12T06:03:57.968Z,5.53
2023-05-12T06:06:24.388Z,6.07
2023-05-12T06:08:50.804Z,5.60
2023-05-12T06:11:17.937Z,6.27
2023-05-12T06:13:44.450Z,6.40
2023-05-12T06:16:10.862Z,6.10
2023-05-12T06:18:38.179Z,6.00
2023-05-12T06:21:06.148Z,5.70
2023-05-12T06:23:32.569Z,5.83
2023-05-12T06:25:59.046Z,6.10
2023-05-12T06:28:25.368Z,5.97
2023-05-12T06:30:51.699Z,6.23
2023-05-12T06:33:18.170Z,6.10
2023-05-12T06:35:44.530Z,5.70
2023-05-12T06:38:11.711Z,5.43
2023-05-12T06:40:38.259Z,6.07
2023-05-12T06:43:04.659Z,5.97
2023-05-12T06:45:31.085Z,5.67
2023-05-12T06:47:57.705Z,6.40
2023-05-12T06:50:24.095Z,5.67
2023-05-12T06:52:51.018Z,5.20
2023-05-12T06:55:19.852Z,5.67
2023-05-12T06:57:46.588Z,6.43
2023-05-12T07:00:13.858Z,5.73
2023-05-12T07:02:40.319Z,6.20
2023-05-12T07:05:07.019Z,6.00
2023-05-12T07:07:33.381Z,5.50
2023-05-12T07:10:02.125Z,5.17
2023-05-12T07:12:28.414Z,5.10
2023-05-12T07:14:54.706Z,4.83
2023-05-12T07:17:23.562Z,5.07
2023-05-12T07:19:49.958Z,4.90
2023-05-12T07:22:16.336Z,4.87
2023-05-12T07:24:43.214Z,4.80
2023-05-12T07:27:09.547Z,4.63
2023-05-12T07:29:35.878Z,4.73
2023-05-12T07:32:02.332Z,4.87
2023-05-12T07:34:28.790Z,4.30
2023-05-12T07:36:55.473Z,4.60
2023-05-12T07:39:23.651Z,4.67
2023-05-12T07:41:50.939Z,4.30
2023-05-12T07:44:17.334Z,4.30
2023-05-12T07:46:43.894Z,4.20
2023-05-12T07:49:10.301Z,4.03
2023-05-12T07:51:36.875Z,4.20
2023-05-12T07:54:03.313Z,4.10
2023-05-12T07:56:29.679Z,4.60
2023-05-12T07:58:56.160Z,4.67
2023-05-12T08:01:22.669Z,4.97
2023-05-12T08:03:51.162Z,5.30
2023-05-12T08:06:18.464Z,4.60
2023-05-12T08:08:45.033Z,4.33
2023-05-12T08:11:12.521Z,4.80
2023-05-12T08:13:38.908Z,4.77
2023-05-12T08:16:05.478Z,4.50
2023-05-12T08:18:31.883Z,4.27
2023-05-12T08:20:58.229Z,4.07
2023-05-12T08:23:24.578Z,4.17
2023-05-12T08:25:50.884Z,4.33
2023-05-12T08:28:17.216Z,4.43
2023-05-12T08:30:45.032Z,4.20
2023-05-12T08:33:12.251Z,4.50
2023-05-12T08:35:38.634Z,4.00
2023-05-12T08:38:05.780Z,4.30
2023-05-12T08:40:41.702Z,3.93
2023-05-12T08:43:37.884Z,3.80
2023-05-12T08:46:05.256Z,4.37
2023-05-12T08:48:34.393Z,3.80
2023-05-12T08:51:02.753Z,4.10
2023-05-12T08:53:29.473Z,3.87
2023-05-12T08:57:09.596Z,4.20
2023-05-12T08:58:45.444Z,4.00
2023-05-12T09:01:12.492Z,3.90
2023-05-12T09:03:39.322Z,3.73
2023-05-12T09:06:06.694Z,3.60
2023-05-12T09:08:34.618Z,4.07
2023-05-12T09:11:01.762Z,3.57
2023-05-12T09:13:48.125Z,3.33
2023-05-12T09:16:18.237Z,3.60
2023-05-12T09:18:50.758Z,3.63
2023-05-12T09:21:17.298Z,3.43
2023-05-12T09:24:06.302Z,3.60
2023-05-12T09:26:50.302Z,3.70
2023-05-12T09:29:27.689Z,3.53
2023-05-12T09:31:58.574Z,3.73
2023-05-12T09:34:30.303Z,3.60
2023-05-12T09:37:01.474Z,3.60
2023-05-12T09:39:28.823Z,3.88
2023-05-12T09:41:55.830Z,3.47
2023-05-12T09:44:23.939Z,3.60
2023-05-12T09:46:51.224Z,3.72
2023-05-12T09:49:28.725Z,3.45
2023-05-12T09:51:58.952Z,4.10
2023-05-12T09:54:29.359Z,3.60
2023-05-12T09:57:04.765Z,3.80
2023-05-12T09:59:33.558Z,3.95
2023-05-12T10:02:03.831Z,3.72
2023-05-12T10:04:39.135Z,3.50
2023-05-12T10:07:09.687Z,3.83
2023-05-12T10:09:39.290Z,3.63
2023-05-12T10:12:06.333Z,4.10
2023-05-12T10:14:33.718Z,3.90
2023-05-12T10:17:00.922Z,4.00
2023-05-12T10:19:29.996Z,4.20
2023-05-12T10:22:00.482Z,3.70
2023-05-12T10:24:27.496Z,4.17
2023-05-12T10:26:57.471Z,3.77
2023-05-12T10:29:30.096Z,4.03
2023-05-12T10:31:57.644Z,4.20
2023-05-12T10:34:30.121Z,3.80
2023-05-12T10:36:58.423Z,4.20
2023-05-12T10:39:29.616Z,4.20
2023-05-12T10:42:06.081Z,3.97
2023-05-12T10:44:32.538Z,4.33
2023-05-12T10:47:02.079Z,5.00
2023-05-12T10:49:39.296Z,4.10
2023-05-12T10:52:05.988Z,4.90
2023-05-12T10:54:40.947Z,4.60
2023-05-12T10:57:16.046Z,4.97
2023-05-12T10:59:52.874Z,4.40
2023-05-12T11:02:26.239Z,4.30
2023-05-12T11:05:01.677Z,4.10
2023-05-12T11:07:30.973Z,5.00
2023-05-12T11:10:02.011Z,4.50
2023-05-12T11:12:35.263Z,4.50
2023-05-12T11:15:03.532Z,5.73
2023-05-12T11:17:30.050Z,5.30
2023-05-12T11:19:56.739Z,5.63
2023-05-12T11:22:23.903Z,5.87
2023-05-12T11:24:52.383Z,5.10
2023-05-12T11:27:21.173Z,4.83
2023-05-12T11:29:58.777Z,5.23
2023-05-12T11:32:25.178Z,4.60
2023-05-12T11:34:51.526Z,4.90
2023-05-12T11:37:20.824Z,4.88
2023-05-12T11:39:47.255Z,4.43
2023-05-12T11:42:14.710Z,5.00
2023-05-12T11:44:49.516Z,4.73
2023-05-12T11:47:17.276Z,4.30
2023-05-12T11:49:49.147Z,4.27
2023-05-12T11:52:16.251Z,5.77
2023-05-12T11:54:52.424Z,6.10
2023-05-12T11:57:30.202Z,5.90
2023-05-12T12:00:04.691Z,6.00
2023-05-12T12:02:31.479Z,6.03
2023-05-12T12:04:58.089Z,6.63
2023-05-12T12:07:32.154Z,6.93
2023-05-12T12:09:59.170Z,7.27
2023-05-12T12:12:25.625Z,7.97
2023-05-12T12:14:51.975Z,7.93
2023-05-12T12:17:18.345Z,8.27
2023-05-12T12:19:44.645Z,8.47
2023-05-12T12:22:11.596Z,8.17
2023-05-12T12:24:37.980Z,7.20
2023-05-12T12:27:05.384Z,6.80
2023-05-12T12:29:31.699Z,6.17
2023-05-12T12:31:58.133Z,7.00
2023-05-12T12:34:24.434Z,6.77
2023-05-12T12:36:51.619Z,6.47
2023-05-12T12:39:19.824Z,6.70
2023-05-12T12:41:48.055Z,6.70
2023-05-12T12:44:14.637Z,6.40
2023-05-12T12:46:41.099Z,5.93
2023-05-12T12:49:07.505Z,5.37
2023-05-12T12:51:45.067Z,5.10
2023-05-12T12:54:13.094Z,4.27
2023-05-12T12:56:39.439Z,3.70
2023-05-12T12:59:06.222Z,4.13
2023-05-12T13:01:33.779Z,4.17
2023-05-12T13:04:00.305Z,4.00
2023-05-12T13:06:27.491Z,3.87
2023-05-12T13:08:53.794Z,3.47
2023-05-12T13:11:20.100Z,2.97
2023-05-12T13:13:46.513Z,3.17
2023-05-12T13:16:12.981Z,3.03
2023-05-12T13:18:39.497Z,2.87
2023-05-12T13:21:06.062Z,2.70
2023-05-12T13:23:32.451Z,3.13
2023-05-12T13:25:58.945Z,3.00
2023-05-12T13:28:25.364Z,2.83
2023-05-12T13:30:52.553Z,3.13
2023-05-12T13:33:19.005Z,3.27
2023-05-12T13:35:45.412Z,3.10
2023-05-12T13:38:11.847Z,3.17
2023-05-12T13:40:38.330Z,3.77
2023-05-12T13:43:05.214Z,3.60
2023-05-12T13:45:31.569Z,3.57
2023-05-12T13:47:58.008Z,3.70
2023-05-12T13:50:24.433Z,3.43
2023-05-12T13:52:50.772Z,3.67
2023-05-12T13:55:21.359Z,3.80
2023-05-12T13:57:48.200Z,3.73
2023-05-12T14:00:16.991Z,4.10
2023-05-12T14:02:43.636Z,3.50
2023-05-12T14:05:10.138Z,3.00
2023-05-12T14:07:36.491Z,3.00
2023-05-12T14:10:03.091Z,3.20
2023-05-12T14:12:29.462Z,2.93
2023-05-12T14:15:04.485Z,3.10
2023-05-12T14:17:38.488Z,3.07
2023-05-12T14:20:06.390Z,3.00
2023-05-12T14:22:33.460Z,3.20
2023-05-12T14:25:00.380Z,3.27
2023-05-12T14:27:26.736Z,3.10
2023-05-12T14:29:53.070Z,2.77
2023-05-12T14:32:19.485Z,3.30
2023-05-12T14:34:46.007Z,2.70
2023-05-12T14:37:12.455Z,2.87
2023-05-12T14:39:38.841Z,2.50
2023-05-12T14:42:05.422Z,2.77
2023-05-12T14:44:32.192Z,3.20
2023-05-12T14:46:58.509Z,3.30
2023-05-12T14:49:24.865Z,2.97
2023-05-12T14:51:51.170Z,3.00
2023-05-12T14:54:25.311Z,2.92
2023-05-12T14:56:52.498Z,2.95
2023-05-12T14:59:18.906Z,2.40
2023-05-12T15:01:45.310Z,2.33
2023-05-12T15:04:11.908Z,2.65
2023-05-12T15:06:38.206Z,2.80
2023-05-12T15:09:04.766Z,3.10
2023-05-12T15:11:31.139Z,2.60
2023-05-12T15:13:57.492Z,2.45
2023-05-12T15:16:26.054Z,2.55
2023-05-12T15:18:52.455Z,2.30
2023-05-12T15:21:18.808Z,2.17
2023-05-12T15:23:45.177Z,2.47
2023-05-12T15:28:40.824Z,2.45
2023-05-12T15:31:07.304Z,4.22
2023-05-12T15:33:33.882Z,3.00
2023-05-12T15:36:00.702Z,2.72
2023-05-12T15:38:27.181Z,2.40
2023-05-12T15:40:53.530Z,2.22
2023-05-12T15:43:19.966Z,2.40
2023-05-12T15:45:46.537Z,2.90
2023-05-12T15:48:12.874Z,2.35
2023-05-12T15:50:39.204Z,2.13
2023-05-12T15:53:06.795Z,2.00
2023-05-12T15:55:33.354Z,1.83
2023-05-12T15:57:59.907Z,1.92
2023-05-12T16:00:26.422Z,2.17
2023-05-12T16:02:53.395Z,2.30
2023-05-12T16:05:20.175Z,2.00
2023-05-12T16:07:47.853Z,2.00
2023-05-12T16:10:14.154Z,1.80
2023-05-12T16:12:40.541Z,2.00
2023-05-12T16:15:07.637Z,2.05
2023-05-12T16:17:33.977Z,1.88
2023-05-12T16:20:02.008Z,1.95
2023-05-12T16:22:28.429Z,2.10
2023-05-12T16:24:56.385Z,2.00
2023-05-12T16:27:22.844Z,2.03
2023-05-12T16:29:50.399Z,1.90
2023-05-12T16:32:17.294Z,1.83
2023-05-12T16:34:43.865Z,1.90
2023-05-12T16:37:10.180Z,2.20
2023-05-12T16:39:36.711Z,2.20
2023-05-12T16:42:03.405Z,1.90
2023-05-12T16:44:29.809Z,1.85
2023-05-12T16:46:56.104Z,1.77
2023-05-12T16:49:22.952Z,1.90
2023-05-12T16:51:50.073Z,1.75
2023-05-12T16:54:17.938Z,2.08
2023-05-12T16:56:44.298Z,2.00
2023-05-12T16:59:10.940Z,2.42
2023-05-12T17:01:39.308Z,2.70
2023-05-12T17:04:06.817Z,2.50
2023-05-12T17:06:33.164Z,2.10
2023-05-12T17:08:59.513Z,2.00
2023-05-12T17:11:25.877Z,2.22
2023-05-12T17:13:53.690Z,2.00
2023-05-12T17:16:20.152Z,2.27
2023-05-12T17:21:15.809Z,2.23
2023-05-12T17:23:42.153Z,3.53
2023-05-12T17:26:08.516Z,2.60
2023-05-12T17:28:34.896Z,2.30
2023-05-12T17:31:01.379Z,2.40
2023-05-12T17:33:27.801Z,2.00
2023-05-12T17:38:26.098Z,2.43
2023-05-12T17:40:52.483Z,2.70
2023-05-12T17:43:18.900Z,2.47
2023-05-12T17:45:45.215Z,2.37
2023-05-12T17:48:11.618Z,2.17
2023-05-12T17:50:39.231Z,2.53
2023-05-12T17:53:06.599Z,2.53
2023-05-12T17:55:33.246Z,2.53
2023-05-12T17:57:59.591Z,2.47
2023-05-12T18:00:25.891Z,2.50
2023-05-12T18:02:52.416Z,2.40
2023-05-12T18:05:19.205Z,2.70
2023-05-12T18:07:45.828Z,3.17
2023-05-12T18:10:12.285Z,3.23
2023-05-12T18:12:38.782Z,3.57
2023-05-12T18:15:06.280Z,3.50
2023-05-12T18:17:32.863Z,3.30
2023-05-12T18:19:59.369Z,3.03
2023-05-12T18:22:26.459Z,2.73
2023-05-12T18:24:52.815Z,2.70
2023-05-12T18:27:19.117Z,2.37
2023-05-12T18:29:45.486Z,2.93
2023-05-12T18:32:11.833Z,2.83
2023-05-12T18:34:38.212Z,3.00
2023-05-12T18:37:04.808Z,2.80
2023-05-12T18:39:31.369Z,3.27
2023-05-12T18:41:57.731Z,3.03
2023-05-12T18:44:24.303Z,3.20
2023-05-12T18:46:50.708Z,3.77
2023-05-12T18:49:17.169Z,3.50
2023-05-12T18:51:43.529Z,3.00
2023-05-12T18:54:09.961Z,3.50
2023-05-12T18:56:36.873Z,3.60
2023-05-12T18:59:03.251Z,3.40
2023-05-12T19:01:29.875Z,3.80
2023-05-12T19:03:56.246Z,3.60
2023-05-12T19:06:22.668Z,3.83
2023-05-12T19:08:49.052Z,3.60
2023-05-12T19:11:15.370Z,3.60
2023-05-12T19:13:45.036Z,3.33
2023-05-12T19:16:11.733Z,3.40
2023-05-12T19:18:38.064Z,3.27
2023-05-12T19:21:04.473Z,3.27
2023-05-12T19:23:31.080Z,3.00
2023-05-12T19:25:57.447Z,3.07
2023-05-12T19:28:24.054Z,3.27
2023-05-12T19:30:50.747Z,4.13
2023-05-12T19:33:17.450Z,4.00
2023-05-12T19:35:43.847Z,3.50
2023-05-12T19:38:10.148Z,3.50
2023-05-12T19:40:36.520Z,3.33
2023-05-12T19:43:04.978Z,3.60
2023-05-12T19:45:31.307Z,4.10
2023-05-12T19:47:57.806Z,4.07
2023-05-12T19:50:24.230Z,4.13
2023-05-12T19:52:50.566Z,4.17
2023-05-12T19:55:17.010Z,3.73
2023-05-12T19:57:43.854Z,3.63
2023-05-12T20:00:10.875Z,3.87
2023-05-12T20:02:37.426Z,4.17
2023-05-12T20:05:04.052Z,4.00
2023-05-12T20:07:30.539Z,4.23
2023-05-12T20:09:57.059Z,4.47
2023-05-12T20:12:23.422Z,4.57
2023-05-12T20:14:49.924Z,4.63
2023-05-12T20:17:16.403Z,3.90
2023-05-12T20:19:42.795Z,4.50
2023-05-12T20:22:09.126Z,4.20
2023-05-12T20:24:35.523Z,4.67
2023-05-12T20:27:02.081Z,4.70
2023-05-12T20:29:30.151Z,5.10
2023-05-12T20:31:56.538Z,5.03
2023-05-12T20:34:22.858Z,5.60
2023-05-12T20:36:49.340Z,4.50
2023-05-12T20:39:15.807Z,5.40
2023-05-12T20:41:43.357Z,5.00
2023-05-12T20:44:09.735Z,5.00
2023-05-12T20:46:38.260Z,5.00
2023-05-12T20:49:05.002Z,5.70
2023-05-12T20:51:32.327Z,5.70
2023-05-12T20:53:58.705Z,5.30
2023-05-12T20:56:26.386Z,6.10
2023-05-12T20:58:52.889Z,6.37
2023-05-12T21:01:19.275Z,7.40
2023-05-12T21:03:46.008Z,8.00
2023-05-12T21:06:12.446Z,6.57
2023-05-12T21:08:38.759Z,6.43
2023-05-12T21:11:13.630Z,6.03
2023-05-12T21:13:40.020Z,6.67
2023-05-12T21:16:06.349Z,6.20
2023-05-12T21:18:33.191Z,6.70
2023-05-12T21:20:59.666Z,6.60
2023-05-12T21:23:28.186Z,6.73
2023-05-12T21:25:54.827Z,6.30
2023-05-12T21:28:21.313Z,7.27
2023-05-12T21:30:47.971Z,7.00
2023-05-12T21:33:14.420Z,6.90
2023-05-12T21:35:41.140Z,7.87
2023-05-12T21:38:08.418Z,7.60
2023-05-12T21:40:34.743Z,8.57
2023-05-12T21:43:01.072Z,7.97
2023-05-12T21:45:27.515Z,8.37
2023-05-12T21:47:53.987Z,8.10
2023-05-12T21:50:23.381Z,8.83
2023-05-12T21:52:50.205Z,8.87
2023-05-12T21:55:17.272Z,9.10
2023-05-12T21:57:43.581Z,8.67
2023-05-12T22:00:11.936Z,8.37
2023-05-12T22:02:38.311Z,8.27
2023-05-12T22:05:05.496Z,9.17
2023-05-12T22:07:31.824Z,9.03
2023-05-12T22:09:58.112Z,9.37
2023-05-12T22:12:24.512Z,8.70
2023-05-12T22:14:50.880Z,9.53
2023-05-12T22:17:17.158Z,9.40
2023-05-12T22:19:43.533Z,8.93
2023-05-12T22:22:10.039Z,8.77
2023-05-12T22:24:36.408Z,8.97
2023-05-12T22:27:02.727Z,8.60
2023-05-12T22:29:29.061Z,8.40
2023-05-12T22:31:55.438Z,8.60
2023-05-12T22:34:21.750Z,8.60
2023-05-12T22:36:48.123Z,7.93
2023-05-12T22:39:14.646Z,8.83
2023-05-12T22:41:45.277Z,8.20
2023-05-12T22:44:11.642Z,8.40
2023-05-12T22:46:38.000Z,8.60
2023-05-12T22:49:04.354Z,8.60
2023-05-12T22:51:31.615Z,9.20
2023-05-12T22:53:57.908Z,8.07
2023-05-12T22:56:24.205Z,8.27
2023-05-12T22:58:50.620Z,8.17
2023-05-12T23:01:18.300Z,7.93
2023-05-12T23:03:44.726Z,8.10
2023-05-12T23:06:13.463Z,8.07
2023-05-12T23:08:39.823Z,8.10
2023-05-12T23:11:06.128Z,8.83
2023-05-12T23:13:32.477Z,7.80
2023-05-12T23:15:58.803Z,9.70
2023-05-12T23:18:25.160Z,8.23
2023-05-12T23:20:51.671Z,8.10
2023-05-12T23:23:17.960Z,8.47
2023-05-12T23:25:44.306Z,7.30
2023-05-12T23:28:10.607Z,7.73
2023-05-12T23:30:36.909Z,8.10
2023-05-12T23:33:03.327Z,7.30
2023-05-12T23:35:29.699Z,7.40
2023-05-12T23:37:55.993Z,7.80
2023-05-12T23:40:22.667Z,8.03
2023-05-12T23:42:49.214Z,7.70
2023-05-12T23:45:15.840Z,8.00
2023-05-12T23:47:43.107Z,8.60
2023-05-12T23:50:09.553Z,8.20
2023-05-12T23:52:35.920Z,8.03
2023-05-12T23:55:02.210Z,7.93
2023-05-12T23:57:28.521Z,7.97
2023-05-12T23:59:54.861Z,8.87
